Time;durP1;ratioP1;P1;durP2;ratioP2;P2;SDS_P1;SDS_P2;PMS_P1;PMS_P2;Temp;Humidity;BMP_temperature;BMP_pressure;BME280_temperature;BME280_humidity;BME280_pressure;Samples;Min_cycle;Max_cycle;Signal;HPM_P1;HPM_P2
2021/07/03 00:01:48;;;;;;;19.90;15.97;;;;;15.20;101131.00;;;;10497278;28;20198;-76
2021/07/03 00:06:51;;;;;;;27.70;17.07;;;;;15.20;101128.00;;;;10483598;28;20208;-76
2021/07/03 00:11:53;;;;;;;23.00;17.37;;;;;15.20;101124.00;;;;10460327;28;20208;-76
2021/07/03 00:16:55;;;;;;;23.37;16.80;;;;;15.20;101126.00;;;;10459804;28;20266;-75
2021/07/03 00:21:57;;;;;;;21.53;16.97;;;;;15.30;101124.00;;;;10475980;28;20236;-75
2021/07/03 00:26:59;;;;;;;22.07;17.00;;;;;15.30;101120.00;;;;10459964;28;20667;-76
2021/07/03 00:32:01;;;;;;;27.60;16.87;;;;;15.30;101119.00;;;;10476392;28;20675;-75
2021/07/03 00:37:04;;;;;;;20.90;15.50;;;;;15.30;101118.00;;;;10492538;28;20255;-75
2021/07/03 00:42:06;;;;;;;19.23;15.87;;;;;15.20;101127.00;;;;10459343;28;20228;-76
2021/07/03 00:47:09;;;;;;;22.33;16.27;;;;;15.10;101124.00;;;;10476162;28;20609;-76
2021/07/03 00:52:14;;;;;;;27.27;15.87;;;;;15.00;101111.00;;;;10462495;28;20295;-75
2021/07/03 00:57:16;;;;;;;20.70;16.70;;;;;15.00;101105.00;;;;10484339;28;20228;-76
2021/07/03 01:02:21;;;;;;;17.63;15.67;;;;;15.00;101099.00;;;;10500501;28;20189;-76
2021/07/03 01:07:23;;;;;;;23.40;17.20;;;;;15.10;101093.00;;;;10484026;28;20185;-76
2021/07/03 01:12:27;;;;;;;21.70;15.50;;;;;15.20;101090.00;;;;10516971;28;20193;-76
2021/07/03 01:17:29;;;;;;;23.97;15.20;;;;;15.30;101091.00;;;;10458563;28;20233;-76
2021/07/03 01:22:33;;;;;;;19.20;14.50;;;;;15.30;101088.00;;;;10490636;28;20189;-76
2021/07/03 01:27:35;;;;;;;24.37;16.33;;;;;15.40;101087.00;;;;10496200;28;20194;-76
2021/07/03 01:32:39;;;;;;;19.97;15.97;;;;;15.40;101081.00;;;;10468721;28;20244;-76
2021/07/03 01:37:42;;;;;;;22.07;16.23;;;;;15.40;101079.00;;;;10485017;28;20198;-76
2021/07/03 01:42:44;;;;;;;18.60;14.67;;;;;15.40;101084.00;;;;10468028;28;20190;-76
2021/07/03 01:47:48;;;;;;;19.10;15.47;;;;;15.50;101080.00;;;;10435068;28;20236;-76
2021/07/03 01:52:51;;;;;;;18.70;14.97;;;;;15.50;101061.00;;;;10467707;28;20217;-75
2021/07/03 01:57:56;;;;;;;18.10;14.10;;;;;15.50;101064.00;;;;10467263;28;20653;-76
2021/07/03 02:03:26;;;;;;;18.13;13.60;;;;;15.50;101064.00;;;;10466670;28;20208;-76
2021/07/03 02:08:29;;;;;;;16.07;13.03;;;;;15.60;101060.00;;;;10467198;28;21012;-75
2021/07/03 02:13:45;;;;;;;20.37;13.93;;;;;15.60;101058.00;;;;10459156;28;20209;-76
2021/07/03 02:18:50;;;;;;;17.23;13.50;;;;;15.60;101055.00;;;;10450146;28;20194;-76
2021/07/03 02:23:59;;;;;;;21.73;14.07;;;;;15.60;101039.00;;;;10482854;28;20205;-76
2021/07/03 02:29:03;;;;;;;18.43;13.30;;;;;15.50;101044.00;;;;10507278;28;20185;-76
2021/07/03 02:34:07;;;;;;;18.87;14.03;;;;;15.50;101051.00;;;;10490832;28;20217;-76
2021/07/03 02:39:09;;;;;;;20.80;13.93;;;;;15.40;101045.00;;;;10507030;28;20219;-76
2021/07/03 02:44:22;;;;;;;17.43;13.43;;;;;15.30;101042.00;;;;10492234;28;20220;-76
2021/07/03 02:49:26;;;;;;;17.47;13.67;;;;;15.20;101025.00;;;;10474196;28;20211;-76
2021/07/03 02:54:28;;;;;;;17.63;13.43;;;;;15.20;101029.00;;;;10468774;28;20212;-76
2021/07/03 02:59:30;;;;;;;21.60;14.17;;;;;15.10;101023.00;;;;10464957;28;20706;-76
2021/07/03 03:04:35;;;;;;;19.20;14.50;;;;;15.00;101023.00;;;;10432302;28;20213;-76
2021/07/03 03:09:38;;;;;;;16.03;12.53;;;;;15.00;101019.00;;;;10447923;28;20198;-76
2021/07/03 03:14:40;;;;;;;18.57;14.00;;;;;15.00;101020.00;;;;10431359;28;20242;-76
2021/07/03 03:19:42;;;;;;;20.07;14.03;;;;;15.00;101016.00;;;;10464210;28;20205;-76
2021/07/03 03:24:48;;;;;;;16.83;13.43;;;;;15.10;101010.00;;;;10448378;28;20292;-76
2021/07/03 03:29:52;;;;;;;16.77;13.00;;;;;15.00;101013.00;;;;10447227;28;20284;-76
2021/07/03 03:34:54;;;;;;;18.07;12.27;;;;;15.00;100997.00;;;;10464891;28;20738;-76
2021/07/03 03:39:57;;;;;;;17.00;13.17;;;;;15.00;100999.00;;;;10430660;28;20243;-75
2021/07/03 03:45:06;;;;;;;14.20;12.27;;;;;15.00;101003.00;;;;10463075;28;20235;-76
2021/07/03 03:50:10;;;;;;;17.23;12.40;;;;;14.90;101001.00;;;;10488332;28;20197;-76
2021/07/03 03:55:13;;;;;;;15.73;12.80;;;;;14.90;101007.00;;;;10479387;28;20200;-76
2021/07/03 04:00:18;;;;;;;18.63;11.93;;;;;14.90;101006.00;;;;10446867;28;20196;-76
2021/07/03 04:05:19;;;;;;;19.17;13.00;;;;;15.00;101013.00;;;;10479429;28;20304;-76
2021/07/03 04:10:25;;;;;;;21.07;12.63;;;;;15.10;101011.00;;;;10447555;28;20221;-75
2021/07/03 04:15:27;;;;;;;18.03;13.17;;;;;15.30;101012.00;;;;10446371;28;20190;-76
2021/07/03 04:20:29;;;;;;;18.90;13.03;;;;;16.00;101001.00;;;;10446442;28;20208;-76
2021/07/03 04:25:31;;;;;;;18.20;11.53;;;;;16.60;101002.00;;;;10462576;28;20213;-76
2021/07/03 04:30:33;;;;;;;20.63;11.37;;;;;17.00;100999.00;;;;10479220;28;20644;-76
2021/07/03 04:35:36;;;;;;;16.10;11.20;;;;;17.50;100999.00;;;;10462313;28;20213;-76
2021/07/03 04:40:38;;;;;;;14.80;11.30;;;;;18.00;101006.00;;;;10462049;28;20206;-76
2021/07/03 04:45:40;;;;;;;12.85;10.73;;;;;18.00;101001.00;;;;10429082;28;20216;-75
2021/07/03 04:50:42;;;;;;;15.75;11.55;;;;;17.90;100998.00;;;;10479130;28;20196;-76
2021/07/03 04:55:43;;;;;;;14.77;10.75;;;;;17.60;100995.00;;;;10468602;28;20557;-76
2021/07/03 05:00:48;;;;;;;12.27;10.55;;;;;17.50;100993.00;;;;10458773;28;20555;-76
2021/07/03 05:05:51;;;;;;;14.02;11.13;;;;;17.30;100991.00;;;;10494918;28;20208;-75
2021/07/03 05:10:53;;;;;;;12.93;10.73;;;;;17.30;100991.00;;;;10511135;28;20200;-76
2021/07/03 05:15:55;;;;;;;12.23;10.07;;;;;17.40;100987.00;;;;10511026;28;20817;-76
2021/07/03 05:20:57;;;;;;;12.13;10.48;;;;;17.50;101000.00;;;;10516954;28;20672;-75
2021/07/03 05:25:59;;;;;;;15.23;11.82;;;;;17.60;101000.00;;;;10435982;28;20213;-76
2021/07/03 05:31:01;;;;;;;14.35;10.60;;;;;17.70;101007.00;;;;10452119;28;20552;-76
2021/07/03 05:36:04;;;;;;;13.35;10.60;;;;;17.80;100999.00;;;;10468340;28;20217;-76
2021/07/03 05:41:06;;;;;;;17.38;10.50;;;;;17.90;100989.00;;;;10492816;28;20560;-76
2021/07/03 05:46:09;;;;;;;12.27;10.57;;;;;17.90;100991.00;;;;10492831;28;20213;-76
2021/07/03 05:51:12;;;;;;;14.20;9.65;;;;;17.90;100987.00;;;;10476367;28;20193;-76
2021/07/03 05:56:14;;;;;;;12.32;10.57;;;;;17.80;100984.00;;;;10492596;28;20185;-76
2021/07/03 06:01:16;;;;;;;11.23;9.25;;;;;17.90;100973.00;;;;10492781;28;20521;-76
2021/07/03 06:06:18;;;;;;;11.27;9.50;;;;;17.90;100974.00;;;;10507872;28;20209;-75
2021/07/03 06:11:20;;;;;;;11.50;8.82;;;;;18.00;100974.00;;;;10492782;28;20285;-76
2021/07/03 06:16:23;;;;;;;12.48;8.90;;;;;17.90;100968.00;;;;10475113;28;20567;-76
2021/07/03 06:21:25;;;;;;;13.18;9.93;;;;;17.90;100968.00;;;;10491879;28;20185;-76
2021/07/03 06:26:27;;;;;;;10.20;9.18;;;;;17.90;100964.00;;;;10482619;28;20209;-76
2021/07/03 06:31:29;;;;;;;12.18;9.73;;;;;18.00;100972.00;;;;10466188;28;20197;-76
2021/07/03 06:36:31;;;;;;;10.65;9.20;;;;;18.00;100982.00;;;;10466052;28;20553;-76
2021/07/03 06:41:32;;;;;;;13.55;9.60;;;;;18.10;100973.00;;;;10449410;28;20288;-76
2021/07/03 06:46:34;;;;;;;9.98;8.98;;;;;18.30;100974.00;;;;10466002;28;20212;-76
2021/07/03 06:51:37;;;;;;;11.00;8.98;;;;;18.70;100969.00;;;;10480598;28;20220;-76
2021/07/03 06:56:39;;;;;;;9.82;8.23;;;;;19.00;100963.00;;;;10521099;28;20204;-76
2021/07/03 07:01:40;;;;;;;11.43;9.57;;;;;19.10;100955.00;;;;10506499;28;20578;-75
2021/07/03 07:06:42;;;;;;;11.98;8.75;;;;;19.30;100951.00;;;;10506189;28;20601;-76
2021/07/03 07:11:45;;;;;;;10.13;8.98;;;;;19.40;100954.00;;;;10522762;28;20184;-76
2021/07/03 07:16:47;;;;;;;11.05;8.20;;;;;19.50;100956.00;;;;10472820;28;20640;-76
2021/07/03 07:21:49;;;;;;;9.00;8.05;;;;;19.70;100964.00;;;;10505902;28;20192;-76
2021/07/03 07:26:51;;;;;;;10.93;7.60;;;;;19.60;100952.00;;;;10480578;28;20217;-76
2021/07/03 07:31:53;;;;;;;9.50;7.43;;;;;19.90;100945.00;;;;10480656;28;20209;-77
2021/07/03 07:36:55;;;;;;;8.15;7.35;;;;;20.00;100934.00;;;;10463757;28;20206;-76
2021/07/03 07:41:57;;;;;;;8.25;7.40;;;;;20.00;100947.00;;;;10446883;28;20627;-76
2021/07/03 07:46:58;;;;;;;7.85;7.05;;;;;20.00;100955.00;;;;10463650;28;20211;-76
2021/07/03 07:52:01;;;;;;;8.07;7.28;;;;;20.10;100958.00;;;;10463427;28;20285;-75
2021/07/03 07:57:04;;;;;;;8.60;7.03;;;;;20.40;100947.00;;;;10446872;28;20193;-76
2021/07/03 08:02:06;;;;;;;11.18;7.20;;;;;21.00;100935.00;;;;10455291;28;20201;-76
2021/07/03 08:07:08;;;;;;;8.88;7.20;;;;;21.60;100936.00;;;;10497065;28;20201;-76
2021/07/03 08:12:12;;;;;;;8.35;7.22;;;;;21.90;100936.00;;;;10446683;28;20664;-76
2021/07/03 08:17:14;;;;;;;8.38;7.22;;;;;22.20;100927.00;;;;10479129;28;20200;-76
2021/07/03 08:22:16;;;;;;;7.65;6.88;;;;;22.20;100937.00;;;;10479436;28;20189;-76
2021/07/03 08:27:18;;;;;;;7.55;6.57;;;;;22.40;100927.00;;;;10447040;28;20259;-76
2021/07/03 08:32:22;;;;;;;9.02;7.00;;;;;22.40;100923.00;;;;10470752;28;20226;-76
2021/07/03 08:37:24;;;;;;;11.65;7.68;;;;;22.40;100925.00;;;;10470197;28;20186;-76
2021/07/03 08:42:26;;;;;;;7.20;6.28;;;;;22.40;100923.00;;;;10454275;28;20691;-76
2021/07/03 08:47:28;;;;;;;8.52;6.68;;;;;22.50;100929.00;;;;10503249;28;20795;-76
2021/07/03 08:52:29;;;;;;;7.75;6.80;;;;;22.90;100917.00;;;;10458580;28;20204;-76
2021/07/03 08:57:41;;;;;;;8.52;6.70;;;;;23.50;100921.00;;;;10478818;28;20548;-77
2021/07/03 09:02:45;;;;;;;8.82;6.90;;;;;23.30;100920.00;;;;10511248;28;20189;-76
2021/07/03 09:07:47;;;;;;;7.95;6.18;;;;;22.90;100912.00;;;;10472755;28;20691;-77
2021/07/03 09:12:51;;;;;;;7.57;6.80;;;;;23.00;100911.00;;;;10469031;28;20193;-76
2021/07/03 09:18:05;;;;;;;7.47;6.22;;;;;22.90;100905.00;;;;10436341;28;20679;-76
2021/07/03 09:23:09;;;;;;;8.07;6.85;;;;;22.90;100900.00;;;;10469860;28;20208;-75
2021/07/03 09:28:15;;;;;;;7.53;6.82;;;;;23.30;100900.00;;;;10468338;28;20232;-76
2021/07/03 09:33:23;;;;;;;7.90;6.55;;;;;23.70;100884.00;;;;10468245;28;20707;-76
2021/07/03 09:38:34;;;;;;;8.00;6.78;;;;;23.90;100885.00;;;;10466924;28;20198;-76
2021/07/03 09:43:40;;;;;;;7.70;6.75;;;;;24.00;100880.00;;;;10477886;28;20220;-76
2021/07/03 09:48:50;;;;;;;7.07;6.28;;;;;24.30;100877.00;;;;10451103;28;20226;-76
2021/07/03 09:53:54;;;;;;;7.47;6.65;;;;;24.40;100871.00;;;;10451213;28;20196;-76
2021/07/03 09:58:56;;;;;;;7.07;6.20;;;;;24.30;100869.00;;;;10467204;28;20198;-76
2021/07/03 10:04:01;;;;;;;6.53;5.93;;;;;24.40;100875.00;;;;10450537;28;20225;-77
2021/07/03 10:09:09;;;;;;;7.13;6.43;;;;;24.80;100861.00;;;;10450406;28;20221;-77
2021/07/03 10:14:12;;;;;;;8.85;5.80;;;;;24.70;100870.00;;;;10466607;28;20194;-76
2021/07/03 10:19:16;;;;;;;7.32;5.72;;;;;24.50;100876.00;;;;10467160;28;20193;-77
2021/07/03 10:24:23;;;;;;;7.38;5.78;;;;;24.50;100885.00;;;;10488048;28;20702;-77
2021/07/03 10:29:25;;;;;;;8.23;6.05;;;;;24.60;100880.00;;;;10506759;28;20201;-77
2021/07/03 10:34:28;;;;;;;9.07;5.53;;;;;24.80;100882.00;;;;10472051;28;20672;-77
2021/07/03 10:39:43;;;;;;;6.03;5.43;;;;;25.20;100872.00;;;;10507494;28;20207;-77
2021/07/03 10:44:45;;;;;;;7.15;5.75;;;;;25.70;100873.00;;;;10490880;28;20232;-77
2021/07/03 10:49:47;;;;;;;6.10;5.30;;;;;25.70;100868.00;;;;10490859;28;20261;-77
2021/07/03 10:54:49;;;;;;;5.95;5.35;;;;;25.70;100871.00;;;;10491049;28;20185;-77
2021/07/03 11:00:05;;;;;;;10.82;5.85;;;;;25.40;100869.00;;;;10507422;28;20188;-76
2021/07/03 11:05:14;;;;;;;6.35;5.43;;;;;25.00;100871.00;;;;10479170;28;20212;-77
2021/07/03 11:10:27;;;;;;;6.47;5.88;;;;;24.50;100865.00;;;;10481597;28;20231;-76
2021/07/03 11:15:29;;;;;;;7.60;5.95;;;;;24.60;100858.00;;;;10464272;28;20213;-76
2021/07/03 11:20:36;;;;;;;7.03;5.95;;;;;24.50;100863.00;;;;10464399;28;20197;-76
2021/07/03 11:25:40;;;;;;;10.95;6.60;;;;;24.40;100857.00;;;;10520496;28;20215;-76
2021/07/03 11:30:45;;;;;;;6.90;6.20;;;;;24.80;100854.00;;;;10547839;28;20199;-77
2021/07/03 11:35:49;;;;;;;5.82;5.32;;;;;26.20;100849.00;;;;10471409;28;20221;-77
2021/07/03 11:40:55;;;;;;;6.55;5.47;;;;;27.80;100834.00;;;;10447205;28;20208;-77
2021/07/03 11:46:00;;;;;;;5.55;4.95;;;;;28.50;100830.00;;;;10470326;28;20193;-77
2021/07/03 11:51:04;;;;;;;6.18;5.35;;;;;28.30;100820.00;;;;10505425;28;20199;-77
2021/07/03 11:56:23;;;;;;;6.47;5.20;;;;;27.70;100832.00;;;;10491076;28;20291;-77
2021/07/03 12:01:25;;;;;;;7.18;5.45;;;;;26.70;100828.00;;;;10504713;28;20644;-77
2021/07/03 12:06:27;;;;;;;6.22;5.63;;;;;26.40;100823.00;;;;10488606;28;20570;-77
2021/07/03 12:11:29;;;;;;;7.57;6.47;;;;;26.40;100818.00;;;;10471981;28;20189;-76
2021/07/03 12:16:31;;;;;;;7.35;6.57;;;;;26.40;100816.00;;;;10505146;28;20774;-77
2021/07/03 12:21:36;;;;;;;6.13;5.53;;;;;26.60;100799.00;;;;10504704;28;20696;-77
2021/07/03 12:26:41;;;;;;;6.28;5.30;;;;;26.60;100810.00;;;;10487972;28;20223;-77
2021/07/03 12:31:47;;;;;;;5.85;5.22;;;;;26.90;100810.00;;;;10480005;28;20216;-77
2021/07/03 12:36:51;;;;;;;6.10;5.40;;;;;27.10;100800.00;;;;10505117;28;20181;-76
2021/07/03 12:42:02;;;;;;;7.32;5.78;;;;;27.20;100798.00;;;;10487320;28;20304;-77
2021/07/03 12:47:07;;;;;;;7.57;5.05;;;;;27.10;100799.00;;;;10487407;28;20208;-76
2021/07/03 12:52:12;;;;;;;6.45;5.15;;;;;26.90;100797.00;;;;10538738;28;20272;-77
2021/07/03 12:57:14;;;;;;;6.30;5.40;;;;;26.70;100786.00;;;;10487681;28;20196;-77
2021/07/03 13:02:16;;;;;;;6.82;5.85;;;;;26.40;100788.00;;;;10470778;28;20286;-77
2021/07/03 13:07:20;;;;;;;6.78;6.07;;;;;26.10;100790.00;;;;10470611;28;20220;-76
2021/07/03 13:12:22;;;;;;;6.75;5.50;;;;;26.00;100789.00;;;;10470068;28;20208;-76
2021/07/03 13:17:24;;;;;;;9.00;5.88;;;;;26.00;100778.00;;;;10493968;28;20193;-77
2021/07/03 13:22:25;;;;;;;7.80;5.43;;;;;26.20;100782.00;;;;10511450;28;20207;-76
2021/07/03 13:27:27;;;;;;;7.13;5.63;;;;;26.70;100778.00;;;;10493927;28;20840;-77
2021/07/03 13:32:29;;;;;;;6.47;5.88;;;;;26.30;100790.00;;;;10478324;28;20280;-76
2021/07/03 13:37:31;;;;;;;7.05;6.45;;;;;25.20;100793.00;;;;10510837;28;20660;-77
2021/07/03 13:42:33;;;;;;;7.07;6.15;;;;;24.80;100807.00;;;;10493960;28;20206;-77
2021/07/03 13:47:35;;;;;;;9.70;6.70;;;;;24.10;100821.00;;;;10493970;28;20557;-77
2021/07/03 13:52:37;;;;;;;9.95;8.00;;;;;23.60;100816.00;;;;10463192;28;20200;-77
2021/07/03 13:57:40;;;;;;;10.57;8.15;;;;;23.10;100828.00;;;;10519111;28;20643;-77
2021/07/03 14:02:42;;;;;;;10.80;8.43;;;;;22.60;100846.00;;;;10511632;28;20211;-77
2021/07/03 14:07:44;;;;;;;9.38;8.02;;;;;22.30;100850.00;;;;10527932;28;20230;-77
2021/07/03 14:12:46;;;;;;;10.40;7.88;;;;;21.90;100866.00;;;;10527244;28;20189;-77
2021/07/03 14:17:49;;;;;;;6.93;6.22;;;;;21.50;100871.00;;;;10509868;28;20655;-77
2021/07/03 14:22:51;;;;;;;7.22;6.32;;;;;21.50;100873.00;;;;10492273;28;20211;-78
2021/07/03 14:27:54;;;;;;;10.75;6.30;;;;;21.50;100880.00;;;;10475785;28;20212;-77
2021/07/03 14:32:55;;;;;;;6.90;6.15;;;;;21.40;100870.00;;;;10475757;28;20556;-77
2021/07/03 14:37:57;;;;;;;9.35;6.28;;;;;21.10;100874.00;;;;10467722;28;20205;-77
2021/07/03 14:42:59;;;;;;;7.85;6.22;;;;;20.80;100875.00;;;;10450257;28;20198;-77
2021/07/03 14:48:01;;;;;;;7.78;6.85;;;;;20.60;100869.00;;;;10490879;28;20227;-78
2021/07/03 14:53:03;;;;;;;9.52;6.50;;;;;20.50;100878.00;;;;10476051;28;20284;-78
2021/07/03 14:58:06;;;;;;;12.63;8.68;;;;;20.40;100885.00;;;;10508238;28;20186;-78
2021/07/03 15:03:07;;;;;;;14.38;12.40;;;;;20.50;100882.00;;;;10510036;28;20192;-78
2021/07/03 15:08:09;;;;;;;13.73;10.85;;;;;20.80;100857.00;;;;10474589;28;20219;-77
2021/07/03 15:13:13;;;;;;;13.10;11.30;;;;;21.00;100852.00;;;;10507148;28;20193;-77
2021/07/03 15:18:15;;;;;;;12.88;11.27;;;;;21.10;100855.00;;;;10506234;28;20280;-77
2021/07/03 15:23:17;;;;;;;16.10;12.05;;;;;21.20;100843.00;;;;10523796;28;20218;-77
2021/07/03 15:28:19;;;;;;;14.55;13.00;;;;;20.80;100838.00;;;;10505962;28;20205;-77
2021/07/03 15:33:21;;;;;;;15.82;14.10;;;;;20.60;100827.00;;;;10506557;28;20204;-77
2021/07/03 15:38:23;;;;;;;13.00;11.63;;;;;20.60;100836.00;;;;10506077;28;20192;-76
2021/07/03 15:43:25;;;;;;;8.95;7.80;;;;;20.80;100836.00;;;;10489796;28;20675;-77
2021/07/03 15:48:27;;;;;;;9.35;8.45;;;;;21.30;100835.00;;;;10488560;28;20840;-77
2021/07/03 15:53:29;;;;;;;11.68;9.90;;;;;21.60;100838.00;;;;10503938;28;20189;-77
2021/07/03 15:58:31;;;;;;;11.00;8.68;;;;;21.70;100833.00;;;;10463358;28;20193;-77
2021/07/03 16:03:33;;;;;;;10.38;8.30;;;;;21.60;100835.00;;;;10430684;28;20239;-77
2021/07/03 16:08:35;;;;;;;13.45;8.55;;;;;21.10;100830.00;;;;10496831;28;20201;-77
2021/07/03 16:13:37;;;;;;;11.68;9.05;;;;;20.90;100832.00;;;;10463044;28;20199;-76
2021/07/03 16:18:39;;;;;;;8.20;7.03;;;;;20.60;100817.00;;;;10462810;28;20672;-76
2021/07/03 16:23:41;;;;;;;5.45;4.90;;;;;20.50;100828.00;;;;10498787;28;20205;-76
2021/07/03 16:28:43;;;;;;;8.20;4.80;;;;;20.40;100822.00;;;;10470968;28;20209;-76
2021/07/03 16:33:44;;;;;;;6.63;4.78;;;;;20.40;100816.00;;;;10478855;28;20259;-76
2021/07/03 16:38:46;;;;;;;5.47;4.43;;;;;20.60;100814.00;;;;10462429;28;20201;-76
2021/07/03 16:43:49;;;;;;;6.03;4.40;;;;;20.50;100827.00;;;;10479153;28;20206;-77
2021/07/03 16:48:51;;;;;;;5.32;4.22;;;;;20.20;100826.00;;;;10495089;28;20208;-77
2021/07/03 16:53:52;;;;;;;6.43;4.70;;;;;19.80;100823.00;;;;10506644;28;20212;-78
2021/07/03 16:58:54;;;;;;;6.18;4.22;;;;;19.50;100816.00;;;;10487284;28;20193;-77
2021/07/03 17:03:56;;;;;;;6.10;4.63;;;;;19.30;100793.00;;;;10454282;28;20538;-77
2021/07/03 17:08:58;;;;;;;4.93;4.32;;;;;19.20;100799.00;;;;10470236;28;20209;-77
2021/07/03 17:14:00;;;;;;;11.05;5.70;;;;;19.20;100788.00;;;;10454044;28;20215;-77
2021/07/03 17:19:02;;;;;;;8.65;5.43;;;;;19.00;100782.00;;;;10469730;28;20205;-77
2021/07/03 17:24:05;;;;;;;6.70;4.65;;;;;18.90;100779.00;;;;10502287;28;20204;-76
2021/07/03 17:29:06;;;;;;;6.25;5.18;;;;;18.80;100782.00;;;;10510900;28;20594;-76
2021/07/03 17:34:08;;;;;;;6.10;4.70;;;;;18.80;100768.00;;;;10493888;28;20687;-77
2021/07/03 17:39:10;;;;;;;8.13;5.00;;;;;19.10;100749.00;;;;10526706;28;20201;-76
2021/07/03 17:44:12;;;;;;;7.32;5.10;;;;;19.50;100749.00;;;;10509796;28;20226;-77
2021/07/03 17:49:14;;;;;;;5.18;4.47;;;;;19.60;100757.00;;;;10543947;28;20201;-76
2021/07/03 17:54:16;;;;;;;5.97;4.88;;;;;19.80;100760.00;;;;10526123;28;20207;-77
2021/07/03 17:59:18;;;;;;;5.00;4.50;;;;;20.00;100767.00;;;;10491827;28;20675;-76
2021/07/03 18:04:20;;;;;;;6.07;4.40;;;;;20.10;100772.00;;;;10508596;28;20223;-77
2021/07/03 18:09:21;;;;;;;6.22;4.43;;;;;19.90;100769.00;;;;10525353;28;20212;-76
2021/07/03 18:14:23;;;;;;;5.63;4.97;;;;;19.80;100765.00;;;;10492083;28;20201;-76
2021/07/03 18:19:25;;;;;;;7.70;4.38;;;;;19.70;100768.00;;;;10525314;28;20212;-77
2021/07/03 18:24:27;;;;;;;17.60;13.85;;;;;19.70;100758.00;;;;10503540;28;20611;-77
2021/07/03 18:29:29;;;;;;;5.38;4.72;;;;;19.50;100762.00;;;;10466389;28;20210;-77
2021/07/03 18:34:31;;;;;;;6.43;5.82;;;;;19.40;100739.00;;;;10472404;28;20216;-76
2021/07/03 18:39:33;;;;;;;6.22;5.18;;;;;19.30;100749.00;;;;10507692;28;20196;-76
2021/07/03 18:44:35;;;;;;;6.22;5.50;;;;;19.30;100750.00;;;;10507873;28;20192;-76
2021/07/03 18:49:37;;;;;;;7.13;5.05;;;;;19.30;100753.00;;;;10507267;28;20209;-76
2021/07/03 18:54:40;;;;;;;7.85;4.68;;;;;19.30;100759.00;;;;10467707;28;20201;-77
2021/07/03 18:59:42;;;;;;;6.32;4.93;;;;;19.40;100759.00;;;;10432469;28;20194;-76
2021/07/03 19:04:46;;;;;;;5.53;4.82;;;;;19.30;100756.00;;;;10481317;28;20202;-76
2021/07/03 19:09:48;;;;;;;8.65;5.22;;;;;19.20;100757.00;;;;10448326;28;20225;-76
2021/07/03 19:14:51;;;;;;;6.63;5.10;;;;;19.00;100758.00;;;;10464223;28;20197;-76
2021/07/03 19:19:53;;;;;;;7.35;5.15;;;;;18.90;100750.00;;;;10464396;28;20640;-76
2021/07/03 19:24:55;;;;;;;6.18;5.20;;;;;18.90;100754.00;;;;10489479;28;20678;-77
2021/07/03 19:29:57;;;;;;;6.18;5.57;;;;;18.70;100752.00;;;;10505694;28;20209;-76
2021/07/03 19:34:59;;;;;;;6.95;5.47;;;;;18.60;100759.00;;;;10479722;28;20248;-77
2021/07/03 19:40:03;;;;;;;8.60;6.20;;;;;18.50;100758.00;;;;10463468;28;20204;-76
2021/07/03 19:45:08;;;;;;;7.68;6.32;;;;;18.40;100761.00;;;;10463444;28;20194;-76
2021/07/03 19:50:12;;;;;;;7.13;6.00;;;;;18.30;100752.00;;;;10463298;28;20213;-77
2021/07/03 19:55:15;;;;;;;6.97;6.28;;;;;18.20;100758.00;;;;10479961;28;20555;-76
2021/07/03 20:00:22;;;;;;;9.73;7.20;;;;;18.10;100761.00;;;;10496245;28;20190;-76
2021/07/03 20:05:24;;;;;;;9.48;7.13;;;;;18.10;100748.00;;;;10479560;28;20193;-75
2021/07/03 20:10:27;;;;;;;7.88;7.07;;;;;18.10;100741.00;;;;10463085;28;20197;-77
2021/07/03 20:15:29;;;;;;;9.23;6.68;;;;;18.10;100736.00;;;;10462729;28;20190;-76
2021/07/03 20:20:32;;;;;;;7.88;6.80;;;;;18.00;100735.00;;;;10479168;28;20193;-77
2021/07/03 20:25:35;;;;;;;7.65;6.72;;;;;18.00;100739.00;;;;10467324;28;20202;-77
2021/07/03 20:30:37;;;;;;;8.30;7.45;;;;;17.90;100756.00;;;;10512587;28;20544;-77
2021/07/03 20:35:39;;;;;;;10.73;8.18;;;;;17.90;100747.00;;;;10512347;28;20208;-76
2021/07/03 20:40:43;;;;;;;10.80;8.43;;;;;17.90;100749.00;;;;10495669;28;20674;-76
2021/07/03 20:45:46;;;;;;;10.23;8.80;;;;;17.90;100747.00;;;;10528645;28;20192;-75
2021/07/03 20:50:48;;;;;;;11.25;8.88;;;;;17.90;100762.00;;;;10494985;28;20197;-77
2021/07/03 20:55:50;;;;;;;12.40;8.70;;;;;17.90;100762.00;;;;10536552;28;20536;-77
2021/07/03 21:00:52;;;;;;;11.02;9.18;;;;;17.90;100765.00;;;;10536689;28;20196;-76
2021/07/03 21:05:54;;;;;;;13.27;9.60;;;;;17.90;100760.00;;;;10553873;28;20216;-77
2021/07/03 21:10:56;;;;;;;12.52;9.82;;;;;17.90;100753.00;;;;10537890;28;20188;-76
2021/07/03 21:15:58;;;;;;;11.25;10.02;;;;;17.80;100742.00;;;;10554276;28;20185;-77
2021/07/03 21:21:02;;;;;;;12.38;10.18;;;;;17.70;100736.00;;;;10554187;28;20643;-77
2021/07/03 21:26:03;;;;;;;12.32;10.73;;;;;17.60;100746.00;;;;10476222;28;20764;-77
2021/07/03 21:31:05;;;;;;;14.85;11.50;;;;;17.50;100750.00;;;;10452971;28;20618;-76
2021/07/03 21:36:07;;;;;;;15.60;11.55;;;;;17.50;100755.00;;;;10504580;28;20217;-77
2021/07/03 21:41:09;;;;;;;14.23;12.32;;;;;17.50;100765.00;;;;10510270;28;20197;-77
2021/07/03 21:46:11;;;;;;;15.30;12.68;;;;;17.50;100758.00;;;;10510037;28;20862;-77
2021/07/03 21:51:13;;;;;;;17.02;11.90;;;;;17.40;100761.00;;;;10510310;28;20197;-77
2021/07/03 21:56:15;;;;;;;17.42;12.35;;;;;17.30;100754.00;;;;10468007;28;20885;-77
2021/07/03 22:01:17;;;;;;;18.95;13.85;;;;;17.20;100752.00;;;;10451141;28;20193;-77
2021/07/03 22:06:19;;;;;;;15.20;12.27;;;;;17.10;100751.00;;;;10483894;28;20786;-76
2021/07/03 22:11:21;;;;;;;16.33;13.02;;;;;17.00;100749.00;;;;10467076;28;20255;-76
2021/07/03 22:16:23;;;;;;;19.98;13.52;;;;;16.90;100738.00;;;;10450671;28;20247;-77
2021/07/03 22:21:25;;;;;;;16.92;14.43;;;;;16.90;100734.00;;;;10434250;28;20190;-77
2021/07/03 22:26:27;;;;;;;18.77;14.07;;;;;16.90;100732.00;;;;10466539;28;20213;-76
2021/07/03 22:31:29;;;;;;;24.27;14.40;;;;;16.90;100728.00;;;;10466515;28;20190;-76
2021/07/03 22:36:33;;;;;;;18.65;14.43;;;;;17.00;100719.00;;;;10507587;28;20203;-77
2021/07/03 22:41:38;;;;;;;19.08;14.75;;;;;17.00;100713.00;;;;10507439;28;20679;-77
2021/07/03 22:46:39;;;;;;;20.52;14.65;;;;;16.90;100710.00;;;;10506895;28;20608;-77
2021/07/03 22:51:41;;;;;;;20.67;14.80;;;;;16.80;100713.00;;;;10523621;28;20851;-77
2021/07/03 22:56:51;;;;;;;23.43;16.40;;;;;16.70;100719.00;;;;10491495;28;20200;-77
2021/07/03 23:01:55;;;;;;;23.30;16.08;;;;;16.70;100719.00;;;;10523976;28;20195;-76
2021/07/03 23:06:57;;;;;;;20.70;16.97;;;;;16.70;100721.00;;;;10490124;28;20227;-77
2021/07/03 23:11:59;;;;;;;22.90;15.45;;;;;16.70;100728.00;;;;10489689;28;20283;-76
2021/07/03 23:17:01;;;;;;;24.23;15.50;;;;;16.60;100724.00;;;;10506179;28;20935;-76
2021/07/03 23:22:03;;;;;;;20.40;14.83;;;;;16.50;100726.00;;;;10504510;28;20224;-77
2021/07/03 23:27:05;;;;;;;22.83;15.30;;;;;16.40;100724.00;;;;10447641;28;20259;-76
2021/07/03 23:32:07;;;;;;;25.50;17.03;;;;;16.30;100730.00;;;;10464113;28;20680;-76
2021/07/03 23:37:09;;;;;;;28.87;16.27;;;;;16.30;100723.00;;;;10480600;28;20272;-76
2021/07/03 23:42:13;;;;;;;26.03;15.27;;;;;16.20;100714.00;;;;10447318;28;20224;-76
2021/07/03 23:47:16;;;;;;;28.97;15.27;;;;;16.10;100710.00;;;;10446741;28;20221;-76
2021/07/03 23:52:18;;;;;;;23.27;15.27;;;;;16.00;100710.00;;;;10466857;28;20223;-75
2021/07/03 23:57:19;;;;;;;21.30;14.67;;;;;16.00;100702.00;;;;10502040;28;20535;-76
